createdAt,value
2018-02-24T00:00:26.646Z,100762.13
2018-02-24T00:02:52.635Z,100763.80
2018-02-24T00:05:18.595Z,100765.38
2018-02-24T00:07:44.523Z,100764.27
2018-02-24T00:10:10.470Z,100762.27
2018-02-24T00:12:36.414Z,100756.58
2018-02-24T00:15:02.375Z,100764.33
2018-02-24T00:17:28.308Z,100757.92
2018-02-24T00:19:54.267Z,100760.27
2018-02-24T00:22:20.195Z,100763.98
2018-02-24T00:24:46.153Z,100765.70
2018-02-24T00:27:12.099Z,100769.41
2018-02-24T00:29:38.063Z,100767.05
2018-02-24T00:32:04.004Z,100768.11
2018-02-24T00:34:29.997Z,100767.78
2018-02-24T00:36:55.929Z,100757.98
2018-02-24T00:39:21.881Z,100756.80
2018-02-24T00:41:47.834Z,100761.47
2018-02-24T00:44:13.905Z,100762.60
2018-02-24T00:46:40.159Z,100758.78
2018-02-24T00:49:06.179Z,100760.05
2018-02-24T00:51:32.143Z,100764.05
2018-02-24T00:53:58.123Z,100755.84
2018-02-24T00:56:24.098Z,100762.89
2018-02-24T00:58:50.037Z,100753.80
2018-02-24T01:01:16.022Z,100749.36
2018-02-24T01:03:41.965Z,100755.71
2018-02-24T01:06:07.937Z,100763.48
2018-02-24T01:08:33.857Z,100755.92
2018-02-24T01:10:59.803Z,100755.71
2018-02-24T01:13:25.749Z,100756.28
2018-02-24T01:15:51.720Z,100757.49
2018-02-24T01:18:17.659Z,100756.73
2018-02-24T01:20:43.586Z,100761.78
2018-02-24T01:23:09.523Z,100763.36
2018-02-24T01:25:35.465Z,100758.40
2018-02-24T01:28:01.416Z,100756.59
2018-02-24T01:30:27.366Z,100756.40
2018-02-24T01:32:53.326Z,100750.58
2018-02-24T01:35:19.273Z,100759.28
2018-02-24T01:37:45.231Z,100760.00
2018-02-24T01:40:11.172Z,100755.58
2018-02-24T01:42:37.177Z,100756.93
2018-02-24T01:45:03.194Z,100751.12
2018-02-24T01:47:29.131Z,100756.50
2018-02-24T01:49:55.063Z,100754.16
2018-02-24T01:52:21.006Z,100754.70
2018-02-24T01:54:46.944Z,100744.37
2018-02-24T01:57:12.885Z,100748.09
2018-02-24T01:59:38.805Z,100747.39
2018-02-24T02:02:04.750Z,100745.87
2018-02-24T02:04:30.681Z,100743.84
2018-02-24T02:06:56.614Z,100748.16
2018-02-24T02:09:22.568Z,100741.89
2018-02-24T02:11:48.500Z,100745.91
2018-02-24T02:14:14.478Z,100743.80
2018-02-24T02:16:40.422Z,100747.84
2018-02-24T02:19:06.357Z,100741.74
2018-02-24T02:21:32.299Z,100745.83
2018-02-24T02:23:58.303Z,100748.59
2018-02-24T02:26:24.253Z,100742.36
2018-02-24T02:28:50.202Z,100744.59
2018-02-24T02:31:16.151Z,100742.70
2018-02-24T02:33:42.150Z,100753.23
2018-02-24T02:36:08.089Z,100752.23
2018-02-24T02:38:34.025Z,100748.97
2018-02-24T02:40:59.987Z,100757.86
2018-02-24T02:43:25.934Z,100757.41
2018-02-24T02:45:51.881Z,100751.48
2018-02-24T02:48:17.826Z,100754.98
2018-02-24T02:50:43.774Z,100751.87
2018-02-24T02:53:09.701Z,100745.02
2018-02-24T02:55:35.662Z,100747.52
2018-02-24T02:58:01.606Z,100749.82
2018-02-24T03:00:27.560Z,100754.06
2018-02-24T03:02:53.490Z,100742.17
2018-02-24T03:05:19.434Z,100745.75
2018-02-24T03:07:45.373Z,100743.95
2018-02-24T03:10:11.322Z,100750.19
2018-02-24T03:12:37.259Z,100746.44
2018-02-24T03:15:03.197Z,100749.87
2018-02-24T03:17:29.158Z,100756.14
2018-02-24T03:19:55.110Z,100757.14
2018-02-24T03:22:21.062Z,100757.94
2018-02-24T03:24:47.001Z,100758.65
2018-02-24T03:27:12.946Z,100761.93
2018-02-24T03:29:38.891Z,100758.58
2018-02-24T03:32:04.834Z,100762.05
2018-02-24T03:34:30.762Z,100765.70
2018-02-24T03:36:56.699Z,100765.91
2018-02-24T03:39:22.680Z,100769.88
2018-02-24T03:41:48.614Z,100772.89
2018-02-24T03:44:14.551Z,100771.88
2018-02-24T03:46:40.494Z,100775.05
2018-02-24T03:49:06.426Z,100778.25
2018-02-24T03:51:32.360Z,100779.41
2018-02-24T03:53:58.313Z,100780.46
2018-02-24T03:56:24.258Z,100784.26
2018-02-24T03:58:50.202Z,100789.99
2018-02-24T04:01:16.175Z,100791.43
2018-02-24T04:03:42.113Z,100800.34
2018-02-24T04:06:08.052Z,100789.69
2018-02-24T04:08:33.999Z,100786.06
2018-02-24T04:10:59.934Z,100800.89
2018-02-24T04:13:25.889Z,100798.85
2018-02-24T04:15:51.833Z,100797.88
2018-02-24T04:18:17.766Z,100798.30
2018-02-24T04:20:43.702Z,100803.42
2018-02-24T04:23:09.648Z,100797.62
2018-02-24T04:25:35.583Z,100805.77
2018-02-24T04:28:01.510Z,100797.05
2018-02-24T04:30:27.448Z,100807.84
2018-02-24T04:32:53.396Z,100801.28
2018-02-24T04:35:19.322Z,100801.88
2018-02-24T04:37:45.258Z,100800.92
2018-02-24T04:40:11.194Z,100807.98
2018-02-24T04:42:37.136Z,100807.11
2018-02-24T04:45:03.136Z,100806.13
2018-02-24T04:47:29.076Z,100804.70
2018-02-24T04:49:55.003Z,100808.97
2018-02-24T04:52:20.941Z,100814.98
2018-02-24T04:54:46.882Z,100812.22
2018-02-24T04:57:12.840Z,100815.34
2018-02-24T04:59:38.820Z,100821.68
2018-02-24T05:02:04.766Z,100817.73
2018-02-24T05:04:30.712Z,100824.20
2018-02-24T05:06:56.654Z,100826.55
2018-02-24T05:09:22.605Z,100822.11
2018-02-24T05:11:48.548Z,100832.33
2018-02-24T05:14:14.498Z,100825.42
2018-02-24T05:16:40.439Z,100827.27
2018-02-24T05:19:06.403Z,100825.69
2018-02-24T05:21:32.350Z,100825.55
2018-02-24T05:23:58.298Z,100828.81
2018-02-24T05:26:24.238Z,100825.27
2018-02-24T05:28:50.158Z,100820.83
2018-02-24T05:31:16.109Z,100823.30
2018-02-24T05:33:42.046Z,100808.34
2018-02-24T05:36:07.971Z,100815.16
2018-02-24T05:38:33.923Z,100814.09
2018-02-24T05:40:59.866Z,100817.19
2018-02-24T05:43:25.791Z,100817.50
2018-02-24T05:45:51.762Z,100818.55
2018-02-24T05:48:17.719Z,100826.32
2018-02-24T05:50:44.047Z,100834.39
2018-02-24T05:53:10.034Z,100833.21
2018-02-24T05:55:36.007Z,100838.13
2018-02-24T05:58:01.950Z,100854.02
2018-02-24T06:00:27.902Z,100857.34
2018-02-24T06:02:53.878Z,100850.95
2018-02-24T06:05:19.826Z,100852.97
2018-02-24T06:07:45.767Z,100859.09
2018-02-24T06:10:11.738Z,100856.47
2018-02-24T06:12:37.719Z,100861.55
2018-02-24T06:15:03.674Z,100853.30
2018-02-24T06:17:29.633Z,100855.88
2018-02-24T06:19:55.572Z,100855.61
2018-02-24T06:22:21.503Z,100862.45
2018-02-24T06:24:47.444Z,100865.07
2018-02-24T06:27:13.385Z,100865.62
2018-02-24T06:29:39.350Z,100869.56
2018-02-24T06:32:05.290Z,100872.58
2018-02-24T06:34:31.259Z,100875.16
2018-02-24T06:36:57.207Z,100873.19
2018-02-24T06:39:23.159Z,100875.36
2018-02-24T06:41:49.109Z,100879.81
2018-02-24T06:44:15.069Z,100872.23
2018-02-24T06:46:41.019Z,100885.38
2018-02-24T06:49:06.975Z,100887.80
2018-02-24T06:51:32.915Z,100886.53
2018-02-24T06:53:58.876Z,100890.11
2018-02-24T06:56:24.816Z,100893.06
2018-02-24T06:58:50.755Z,100900.78
2018-02-24T07:01:16.685Z,100896.75
2018-02-24T07:03:42.621Z,100896.61
2018-02-24T07:06:08.565Z,100896.59
2018-02-24T07:08:34.506Z,100902.47
2018-02-24T07:11:00.434Z,100878.44
2018-02-24T07:13:26.366Z,100892.89
2018-02-24T07:15:52.315Z,100896.14
2018-02-24T07:18:18.250Z,100898.77
2018-02-24T07:20:44.209Z,100903.16
2018-02-24T07:23:10.145Z,100901.13
2018-02-24T07:25:36.096Z,100900.14
2018-02-24T07:28:02.037Z,100906.97
2018-02-24T07:30:27.998Z,100912.20
2018-02-24T07:32:53.989Z,100911.73
2018-02-24T07:35:19.935Z,100910.80
2018-02-24T07:37:45.859Z,100913.53
2018-02-24T07:40:11.834Z,100910.38
2018-02-24T07:42:37.791Z,100909.62
2018-02-24T07:45:03.752Z,100906.72
2018-02-24T07:47:29.679Z,100917.82
2018-02-24T07:49:55.649Z,100918.80
2018-02-24T07:52:21.598Z,100916.22
2018-02-24T07:54:47.529Z,100916.14
2018-02-24T07:57:13.460Z,100915.98
2018-02-24T07:59:39.487Z,100916.72
2018-02-24T08:02:05.434Z,100923.09
2018-02-24T08:04:31.385Z,100918.32
2018-02-24T08:06:57.319Z,100918.31
2018-02-24T08:09:23.270Z,100919.50
2018-02-24T08:11:49.210Z,100927.40
2018-02-24T08:14:15.175Z,100928.11
2018-02-24T08:16:41.103Z,100932.66
2018-02-24T08:19:07.038Z,100931.14
2018-02-24T08:21:32.979Z,100928.73
2018-02-24T08:23:58.957Z,100942.37
2018-02-24T08:26:24.933Z,100940.97
2018-02-24T08:28:50.898Z,100933.92
2018-02-24T08:31:16.838Z,100934.08
2018-02-24T08:33:42.795Z,100939.14
2018-02-24T08:36:08.768Z,100936.77
2018-02-24T08:38:35.241Z,100932.52
2018-02-24T08:41:01.175Z,100933.81
2018-02-24T08:43:27.115Z,100903.78
2018-02-24T08:45:54.125Z,100937.35
2018-02-24T08:48:20.075Z,100934.50
2018-02-24T08:50:46.008Z,100929.61
2018-02-24T08:53:11.948Z,100936.34
2018-02-24T08:55:37.919Z,100938.13
2018-02-24T08:58:03.900Z,100927.55
2018-02-24T09:00:29.862Z,100933.23
2018-02-24T09:02:55.815Z,100920.29
2018-02-24T09:05:21.754Z,100924.97
2018-02-24T09:07:47.733Z,100920.80
2018-02-24T09:10:13.681Z,100922.23
2018-02-24T09:12:39.656Z,100918.63
2018-02-24T09:15:05.608Z,100922.42
2018-02-24T09:17:31.559Z,100917.78
2018-02-24T09:19:57.511Z,100920.00
2018-02-24T09:22:23.454Z,100918.86
2018-02-24T09:24:49.404Z,100920.02
2018-02-24T09:27:15.362Z,100911.13
2018-02-24T09:29:41.297Z,100921.95
2018-02-24T09:32:07.342Z,100923.40
2018-02-24T09:34:33.277Z,100912.82
2018-02-24T09:36:59.213Z,100920.19
2018-02-24T09:39:25.206Z,100922.32
2018-02-24T09:41:51.174Z,100923.70
2018-02-24T09:44:17.147Z,100921.64
2018-02-24T09:46:43.085Z,100909.98
2018-02-24T09:49:09.028Z,100917.30
2018-02-24T09:51:35.096Z,100906.95
2018-02-24T09:54:01.075Z,100907.30
2018-02-24T09:56:27.043Z,100914.38
2018-02-24T09:58:52.979Z,100918.16
2018-02-24T10:01:18.953Z,100929.56
2018-02-24T10:03:44.892Z,100907.89
2018-02-24T10:06:10.822Z,100918.20
2018-02-24T10:08:36.766Z,100915.45
2018-02-24T10:11:02.690Z,100922.14
2018-02-24T10:13:28.658Z,100922.28
2018-02-24T10:15:54.601Z,100919.89
2018-02-24T10:18:20.606Z,100906.75
2018-02-24T10:20:46.535Z,100901.76
2018-02-24T10:23:12.488Z,100901.55
2018-02-24T10:25:38.435Z,100893.47
2018-02-24T10:28:04.381Z,100889.41
2018-02-24T10:30:30.309Z,100892.98
2018-02-24T10:32:56.244Z,100883.17
2018-02-24T10:35:22.178Z,100882.92
2018-02-24T10:37:48.124Z,100880.87
2018-02-24T10:40:14.064Z,100883.39
2018-02-24T10:42:40.028Z,100879.97
2018-02-24T10:45:05.968Z,100875.95
2018-02-24T10:47:31.912Z,100874.59
2018-02-24T10:49:57.850Z,100878.04
2018-02-24T10:52:23.827Z,100888.23
2018-02-24T10:54:49.762Z,100885.84
2018-02-24T10:57:15.720Z,100880.12
2018-02-24T10:59:41.658Z,100878.32
2018-02-24T11:02:07.620Z,100876.04
2018-02-24T11:04:33.561Z,100876.38
2018-02-24T11:06:59.508Z,100870.09
2018-02-24T11:09:25.568Z,100885.16
2018-02-24T11:11:51.542Z,100876.63
2018-02-24T11:14:17.618Z,100872.77
2018-02-24T11:16:43.582Z,100882.66
2018-02-24T11:19:09.528Z,100874.28
2018-02-24T11:21:35.467Z,100868.33
2018-02-24T11:24:01.454Z,100876.53
2018-02-24T11:26:27.482Z,100868.47
2018-02-24T11:28:53.432Z,100849.05
2018-02-24T11:31:19.419Z,100863.00
2018-02-24T11:33:45.310Z,100860.46
2018-02-24T11:36:11.254Z,100861.08
2018-02-24T11:38:37.200Z,100860.91
2018-02-24T11:41:03.140Z,100858.59
2018-02-24T11:43:29.166Z,100863.81
2018-02-24T11:45:55.118Z,100856.95
2018-02-24T11:48:21.299Z,100859.75
2018-02-24T11:50:47.266Z,100869.13
2018-02-24T11:53:13.264Z,100859.92
2018-02-24T11:55:39.177Z,100866.60
2018-02-24T11:58:05.300Z,100861.61
2018-02-24T12:00:31.239Z,100859.16
2018-02-24T12:02:57.176Z,100870.30
2018-02-24T12:05:23.139Z,100867.08
2018-02-24T12:07:49.094Z,100858.64
2018-02-24T12:10:15.120Z,100869.95
2018-02-24T12:12:41.081Z,100864.56
2018-02-24T12:15:07.023Z,100863.59
2018-02-24T12:17:33.000Z,100862.84
2018-02-24T12:19:58.938Z,100865.81
2018-02-24T12:22:24.927Z,100860.94
2018-02-24T12:24:50.876Z,100857.97
2018-02-24T12:27:16.817Z,100858.63
2018-02-24T12:29:42.799Z,100848.98
2018-02-24T12:32:08.806Z,100853.66
2018-02-24T12:34:34.767Z,100851.64
2018-02-24T12:37:00.764Z,100852.88
2018-02-24T12:39:26.786Z,100859.19
2018-02-24T12:41:52.714Z,100864.30
2018-02-24T12:44:18.655Z,100861.02
2018-02-24T12:46:44.630Z,100852.02
2018-02-24T12:49:10.570Z,100852.08
2018-02-24T12:51:36.499Z,100854.31
2018-02-24T12:54:02.452Z,100847.22
2018-02-24T12:56:28.397Z,100854.03
2018-02-24T12:58:54.394Z,100844.81
2018-02-24T13:01:20.351Z,100848.88
2018-02-24T13:03:46.303Z,100853.87
2018-02-24T13:06:12.231Z,100851.19
2018-02-24T13:08:38.155Z,100855.63
2018-02-24T13:11:04.101Z,100862.26
2018-02-24T13:13:30.434Z,100859.28
2018-02-24T13:15:56.371Z,100852.76
2018-02-24T13:18:22.320Z,100861.15
2018-02-24T13:20:48.415Z,100858.20
2018-02-24T13:23:14.369Z,100857.67
2018-02-24T13:25:40.302Z,100864.12
2018-02-24T13:28:06.268Z,100862.53
2018-02-24T13:30:32.226Z,100875.75
2018-02-24T13:32:58.169Z,100869.12
2018-02-24T13:35:24.147Z,100871.16
2018-02-24T13:37:50.095Z,100873.56
2018-02-24T13:40:16.067Z,100871.42
2018-02-24T13:42:42.025Z,100869.31
2018-02-24T13:45:07.979Z,100893.39
2018-02-24T13:47:33.955Z,100882.44
2018-02-24T13:49:59.951Z,100880.38
2018-02-24T13:52:25.941Z,100885.69
2018-02-24T13:54:51.873Z,100882.59
2018-02-24T13:57:17.825Z,100876.25
2018-02-24T13:59:43.775Z,100873.98
2018-02-24T14:02:09.740Z,100870.48
2018-02-24T14:04:35.699Z,100880.16
2018-02-24T14:07:01.681Z,100884.87
2018-02-24T14:09:27.613Z,100880.25
2018-02-24T14:11:53.578Z,100881.17
2018-02-24T14:14:19.525Z,100882.06
2018-02-24T14:16:45.469Z,100878.87
2018-02-24T14:19:11.427Z,100876.84
2018-02-24T14:21:37.389Z,100889.69
2018-02-24T14:24:03.348Z,100894.37
2018-02-24T14:26:29.311Z,100882.49
2018-02-24T14:28:55.245Z,100893.75
2018-02-24T14:31:21.205Z,100891.30
2018-02-24T14:33:47.143Z,100895.61
2018-02-24T14:36:13.084Z,100897.89
2018-02-24T14:38:39.011Z,100900.67
2018-02-24T14:41:04.942Z,100901.23
2018-02-24T14:43:30.883Z,100900.77
2018-02-24T14:45:56.837Z,100904.21
2018-02-24T14:48:22.802Z,100911.87
2018-02-24T14:50:48.738Z,100907.12
2018-02-24T14:53:14.703Z,100914.02
2018-02-24T14:55:40.646Z,100910.88
2018-02-24T14:58:06.580Z,100899.42
2018-02-24T15:00:32.550Z,100903.07
2018-02-24T15:02:58.510Z,100908.63
2018-02-24T15:05:24.537Z,100910.47
2018-02-24T15:07:50.499Z,100904.34
2018-02-24T15:10:16.435Z,100896.50
2018-02-24T15:12:42.377Z,100898.72
2018-02-24T15:15:08.341Z,100909.58
2018-02-24T15:17:34.306Z,100913.25
2018-02-24T15:20:00.238Z,100907.83
2018-02-24T15:22:26.211Z,100915.13
2018-02-24T15:24:52.155Z,100916.60
2018-02-24T15:27:18.108Z,100906.58
2018-02-24T15:29:44.071Z,100909.17
2018-02-24T15:32:10.034Z,100913.09
2018-02-24T15:34:35.976Z,100916.62
2018-02-24T15:37:01.955Z,100917.30
2018-02-24T15:39:27.892Z,100917.81
2018-02-24T15:41:53.840Z,100932.41
2018-02-24T15:44:19.791Z,100929.37
2018-02-24T15:46:45.759Z,100939.78
2018-02-24T15:49:11.699Z,100936.86
2018-02-24T15:51:37.658Z,100932.61
2018-02-24T15:54:03.668Z,100944.88
2018-02-24T15:56:29.604Z,100930.33
2018-02-24T15:58:55.546Z,100933.34
2018-02-24T16:01:21.510Z,100955.95
2018-02-24T16:03:47.468Z,100941.42
2018-02-24T16:06:13.440Z,100956.09
2018-02-24T16:08:39.382Z,100947.52
2018-02-24T16:11:05.334Z,100949.20
2018-02-24T16:13:31.268Z,100950.94
2018-02-24T16:15:57.218Z,100948.64
2018-02-24T16:18:23.146Z,100955.03
2018-02-24T16:20:49.097Z,100966.55
2018-02-24T16:23:15.078Z,100961.51
2018-02-24T16:25:41.014Z,100950.57
2018-02-24T16:28:06.953Z,100957.33
2018-02-24T16:30:32.888Z,100947.72
2018-02-24T16:32:58.847Z,100950.81
2018-02-24T16:35:24.981Z,100954.11
2018-02-24T16:37:50.932Z,100963.41
2018-02-24T16:40:16.872Z,100965.08
2018-02-24T16:42:42.860Z,100965.92
2018-02-24T16:45:08.782Z,100971.80
2018-02-24T16:47:34.720Z,100975.28
2018-02-24T16:50:00.704Z,100967.75
2018-02-24T16:52:26.660Z,100970.62
2018-02-24T16:54:52.584Z,100982.77
2018-02-24T16:57:18.524Z,100983.45
2018-02-24T16:59:44.464Z,100990.44
2018-02-24T17:02:10.426Z,100992.84
2018-02-24T17:04:36.410Z,100997.98
2018-02-24T17:07:02.386Z,101007.13
2018-02-24T17:09:28.335Z,101010.31
2018-02-24T17:11:54.300Z,101016.11
2018-02-24T17:14:20.244Z,101022.80
2018-02-24T17:16:46.216Z,101020.23
2018-02-24T17:19:12.152Z,101022.24
2018-02-24T17:21:38.108Z,101036.45
2018-02-24T17:24:04.046Z,101027.73
2018-02-24T17:26:29.986Z,101032.22
2018-02-24T17:28:55.931Z,101032.41
2018-02-24T17:31:21.874Z,101039.09
2018-02-24T17:33:47.822Z,101037.94
2018-02-24T17:36:13.780Z,101036.25
2018-02-24T17:38:39.720Z,101035.81
2018-02-24T17:41:05.686Z,101047.97
2018-02-24T17:43:31.638Z,101046.66
2018-02-24T17:45:57.586Z,101053.34
2018-02-24T17:48:23.542Z,101056.80
2018-02-24T17:50:49.504Z,101054.39
2018-02-24T17:53:15.450Z,101064.68
2018-02-24T17:55:41.392Z,101063.33
2018-02-24T17:58:07.324Z,101067.02
2018-02-24T18:00:33.265Z,101063.36
2018-02-24T18:02:59.209Z,101069.11
2018-02-24T18:05:25.153Z,101075.95
2018-02-24T18:07:51.124Z,101082.89
2018-02-24T18:10:17.063Z,101083.55
2018-02-24T18:12:43.033Z,101084.52
2018-02-24T18:15:08.976Z,101088.25
2018-02-24T18:17:34.935Z,101091.30
2018-02-24T18:20:00.874Z,101097.69
2018-02-24T18:22:26.851Z,101091.95
2018-02-24T18:24:52.780Z,101088.95
2018-02-24T18:27:18.733Z,101093.20
2018-02-24T18:29:44.671Z,101098.61
2018-02-24T18:32:10.615Z,101099.52
2018-02-24T18:34:36.572Z,101108.46
2018-02-24T18:37:02.531Z,101105.25
2018-02-24T18:39:28.499Z,101106.77
2018-02-24T18:41:54.462Z,101106.62
2018-02-24T18:44:20.404Z,101103.80
2018-02-24T18:46:46.574Z,101107.87
2018-02-24T18:49:12.510Z,101116.80
2018-02-24T18:51:38.492Z,101117.01
2018-02-24T18:54:04.421Z,101129.25
2018-02-24T18:56:30.403Z,101124.36
2018-02-24T18:58:56.348Z,101135.91
2018-02-24T19:01:22.329Z,101141.05
2018-02-24T19:03:48.265Z,101142.06
2018-02-24T19:06:14.238Z,101135.83
2018-02-24T19:08:40.201Z,101148.67
2018-02-24T19:11:06.171Z,101144.93
2018-02-24T19:13:32.111Z,101143.66
2018-02-24T19:15:58.045Z,101148.36
2018-02-24T19:18:24.003Z,101148.84
2018-02-24T19:20:49.947Z,101146.81
2018-02-24T19:23:15.893Z,101148.59
2018-02-24T19:25:41.845Z,101146.34
2018-02-24T19:28:07.803Z,101153.80
2018-02-24T19:30:33.753Z,101144.08
2018-02-24T19:32:59.727Z,101153.09
2018-02-24T19:35:25.673Z,101155.84
2018-02-24T19:37:51.640Z,101154.80
2018-02-24T19:40:17.588Z,101150.86
2018-02-24T19:42:43.523Z,101160.16
2018-02-24T19:45:09.495Z,101151.06
2018-02-24T19:47:35.459Z,101150.08
2018-02-24T19:50:01.405Z,101155.13
2018-02-24T19:52:27.355Z,101147.99
2018-02-24T19:54:53.307Z,101154.19
2018-02-24T19:57:19.282Z,101153.42
2018-02-24T19:59:45.227Z,101150.03
2018-02-24T20:02:11.163Z,101151.54
2018-02-24T20:04:37.117Z,101147.66
2018-02-24T20:07:03.071Z,101149.72
2018-02-24T20:09:29.035Z,101147.67
2018-02-24T20:11:54.986Z,101153.03
2018-02-24T20:14:20.937Z,101150.02
2018-02-24T20:16:46.867Z,101149.36
2018-02-24T20:19:12.795Z,101154.41
2018-02-24T20:21:38.731Z,101149.94
2018-02-24T20:24:04.688Z,101156.14
2018-02-24T20:26:30.665Z,101160.34
2018-02-24T20:28:56.608Z,101159.83
2018-02-24T20:31:22.547Z,101159.25
2018-02-24T20:33:48.485Z,101159.27
2018-02-24T20:36:14.424Z,101154.12
2018-02-24T20:38:40.367Z,101154.86
2018-02-24T20:41:06.390Z,101156.77
2018-02-24T20:43:32.320Z,101156.18
2018-02-24T20:45:58.281Z,101164.40
2018-02-24T20:48:24.225Z,101150.56
2018-02-24T20:50:50.171Z,101156.80
2018-02-24T20:53:16.152Z,101157.12
2018-02-24T20:55:42.087Z,101157.69
2018-02-24T20:58:08.016Z,101161.02
2018-02-24T21:00:33.965Z,101161.95
2018-02-24T21:05:32.217Z,101161.47
2018-02-24T21:07:58.153Z,101161.94
2018-02-24T21:10:24.086Z,101167.78
2018-02-24T21:12:50.048Z,101162.30
2018-02-24T21:15:15.990Z,101166.41
2018-02-24T21:17:41.940Z,101169.42
2018-02-24T21:20:07.898Z,101171.25
2018-02-24T21:22:33.831Z,101172.28
2018-02-24T21:24:59.765Z,101175.34
2018-02-24T21:27:25.766Z,101171.88
2018-02-24T21:29:51.671Z,101168.41
2018-02-24T21:32:17.621Z,101172.17
2018-02-24T21:34:43.583Z,101169.58
2018-02-24T21:37:09.531Z,101173.60
2018-02-24T21:39:35.482Z,101165.73
2018-02-24T21:42:01.419Z,101165.23
2018-02-24T21:44:27.396Z,101175.83
2018-02-24T21:46:53.330Z,101178.38
2018-02-24T21:49:19.345Z,101174.62
2018-02-24T21:51:45.274Z,101179.02
2018-02-24T21:54:11.221Z,101179.27
2018-02-24T21:56:37.159Z,101184.73
2018-02-24T21:59:03.103Z,101181.10
2018-02-24T22:01:29.046Z,101184.36
2018-02-24T22:03:55.011Z,101190.81
2018-02-24T22:06:20.974Z,101181.78
2018-02-24T22:08:46.918Z,101180.83
2018-02-24T22:11:12.873Z,101190.46
2018-02-24T22:13:38.850Z,101183.06
2018-02-24T22:16:04.803Z,101188.88
2018-02-24T22:18:30.842Z,101185.13
2018-02-24T22:20:56.809Z,101192.78
2018-02-24T22:23:22.788Z,101192.39
2018-02-24T22:25:48.748Z,101193.02
2018-02-24T22:28:14.751Z,101192.97
2018-02-24T22:30:40.737Z,101195.20
2018-02-24T22:33:06.685Z,101191.98
2018-02-24T22:35:32.750Z,101194.21
2018-02-24T22:37:58.745Z,101197.66
2018-02-24T22:40:24.766Z,101190.66
2018-02-24T22:42:50.740Z,101198.11
2018-02-24T22:45:16.711Z,101194.84
2018-02-24T22:47:42.681Z,101191.38
2018-02-24T22:50:08.652Z,101199.70
2018-02-24T22:52:34.619Z,101195.64
2018-02-24T22:55:00.583Z,101197.30
2018-02-24T22:57:26.590Z,101200.67
2018-02-24T22:59:52.578Z,101199.70
2018-02-24T23:02:18.577Z,101198.16
2018-02-24T23:04:44.535Z,101197.76
2018-02-24T23:07:10.491Z,101198.51
2018-02-24T23:09:36.439Z,101199.95
2018-02-24T23:12:02.473Z,101193.73
2018-02-24T23:14:28.496Z,101191.35
2018-02-24T23:16:54.448Z,101200.83
2018-02-24T23:19:20.449Z,101196.44
2018-02-24T23:21:46.491Z,101196.25
2018-02-24T23:24:12.439Z,101194.72
2018-02-24T23:26:38.379Z,101197.17
2018-02-24T23:29:04.354Z,101201.67
2018-02-24T23:31:30.307Z,101197.64
2018-02-24T23:33:56.290Z,101201.06
2018-02-24T23:36:22.222Z,101204.90
2018-02-24T23:38:48.191Z,101194.97
2018-02-24T23:41:14.127Z,101200.60
2018-02-24T23:43:40.103Z,101204.66
2018-02-24T23:46:06.040Z,101206.02
2018-02-24T23:48:32.041Z,101206.46
2018-02-24T23:50:58.033Z,101198.73
2018-02-24T23:53:23.975Z,101203.80
2018-02-24T23:55:49.900Z,101198.04
2018-02-24T23:58:15.877Z,101201.03
